Time;durP1;ratioP1;P1;durP2;ratioP2;P2;SDS_P1;SDS_P2;PMS_P1;PMS_P2;Temp;Humidity;BMP_temperature;BMP_pressure;BME280_temperature;BME280_humidity;BME280_pressure;Samples;Min_cycle;Max_cycle;Signal;HPM_P1;HPM_P2
2022/05/14 00:01:20;;;;;;;6.13;3.50;;;;;;;20.83;36.09;100040.02;1634375;86;21604;-60
2022/05/14 00:03:47;;;;;;;6.80;3.00;;;;;;;20.83;36.09;100040.02;1650116;84;21971;-56
2022/05/14 00:06:20;;;;;;;5.00;2.60;;;;;;;20.78;35.91;100035.23;1691137;84;21738;-57
2022/05/14 00:08:48;;;;;;;6.37;2.93;;;;;;;20.87;35.79;100031.86;1692357;84;21619;-56
2022/05/14 00:14:03;;;;;;;6.23;2.93;;;;;;;20.94;35.63;100030.29;1674569;83;22030;-57
2022/05/14 00:16:31;;;;;;;5.63;2.73;;;;;;;21.18;35.24;100024.59;1664411;83;21610;-57
2022/05/14 00:18:58;;;;;;;6.57;3.37;;;;;;;21.13;34.64;100015.53;1671565;83;21553;-59
2022/05/14 00:21:26;;;;;;;8.63;3.20;;;;;;;21.13;34.64;100015.53;1684576;83;21959;-56
2022/05/14 00:23:53;;;;;;;6.63;3.03;;;;;;;21.17;34.79;100009.20;1664265;83;22325;-55
2022/05/14 00:26:21;;;;;;;6.27;3.17;;;;;;;21.29;34.66;100005.00;1675343;83;21250;-56
2022/05/14 00:28:48;;;;;;;6.67;3.43;;;;;;;21.29;34.66;100005.00;1684226;83;21657;-63
2022/05/14 00:31:16;;;;;;;7.47;3.53;;;;;;;21.36;34.07;100006.91;1685224;84;21398;-57
2022/05/14 00:33:45;;;;;;;9.50;2.93;;;;;;;21.45;34.29;100010.67;1680916;83;22278;-55
2022/05/14 00:36:12;;;;;;;5.57;2.57;;;;;;;21.65;34.35;100015.22;1658441;83;21783;-54
2022/05/14 00:38:40;;;;;;;7.37;2.43;;;;;;;21.65;34.35;100015.22;1672318;83;21541;-55
2022/05/14 00:41:08;;;;;;;4.73;1.70;;;;;;;21.66;34.24;100016.02;1685843;83;21544;-61
2022/05/14 00:43:54;;;;;;;3.77;1.60;;;;;;;21.35;34.74;100037.94;1659072;83;22154;-58
2022/05/14 00:46:25;;;;;;;4.83;1.77;;;;;;;21.40;34.73;100037.69;1633655;85;22187;-57
2022/05/14 00:48:52;;;;;;;4.07;1.37;;;;;;;21.18;35.88;100041.30;1678071;83;21974;-55
2022/05/14 00:51:26;;;;;;;3.07;1.20;;;;;;;21.18;35.88;100041.30;1668357;83;21787;-55
2022/05/14 00:54:00;;;;;;;8.33;1.40;;;;;;;21.28;36.08;100040.52;1665816;84;21623;-54
2022/05/14 00:56:36;;;;;;;3.37;1.40;;;;;;;21.26;36.59;100049.28;1675227;83;21840;-55
2022/05/14 00:59:19;;;;;;;5.13;1.80;;;;;;;21.12;37.14;100052.91;1658894;83;21734;-57
2022/05/14 01:01:46;;;;;;;6.67;2.43;;;;;;;21.07;37.71;100047.06;1669894;83;22100;-56
2022/05/14 01:04:14;;;;;;;6.50;2.73;;;;;;;21.14;37.90;100041.01;1671983;83;21942;-58
2022/05/14 01:06:49;;;;;;;7.07;2.07;;;;;;;21.08;38.31;100043.89;1631474;86;21693;-56
2022/05/14 01:09:16;;;;;;;6.80;2.53;;;;;;;21.00;38.70;100043.84;1634465;86;21361;-56
2022/05/14 01:11:43;;;;;;;6.30;2.03;;;;;;;20.93;39.25;100046.45;1622835;86;22585;-56
2022/05/14 01:14:10;;;;;;;5.87;1.97;;;;;;;20.93;39.25;100046.45;1646485;86;21421;-57
2022/05/14 01:16:38;;;;;;;3.17;1.40;;;;;;;20.86;39.48;100050.12;1632792;86;22192;-54
2022/05/14 01:19:05;;;;;;;3.30;1.90;;;;;;;20.88;39.54;100052.00;1641410;86;21168;-56
2022/05/14 01:21:42;;;;;;;6.33;1.93;;;;;;;20.60;39.72;100047.03;1653569;86;21216;-55
2022/05/14 01:27:17;;;;;;;6.13;2.07;;;;;;;20.68;39.62;100043.91;1618557;86;21354;-57
2022/05/14 01:29:45;;;;;;;5.70;2.20;;;;;;;20.65;39.82;100042.58;1636889;86;21339;-62
2022/05/14 01:32:13;;;;;;;4.63;2.17;;;;;;;20.76;39.70;100039.98;1646195;86;21522;-55
2022/05/14 01:34:41;;;;;;;6.53;2.37;;;;;;;20.64;39.90;100037.52;1649940;86;21833;-54
2022/05/14 01:37:10;;;;;;;4.23;2.23;;;;;;;20.51;40.20;100025.53;1627146;86;21209;-62
2022/05/14 01:39:38;;;;;;;4.03;1.50;;;;;;;20.51;40.21;100029.50;1634015;86;21205;-61
2022/05/14 01:42:06;;;;;;;4.13;2.00;;;;;;;20.24;40.73;100028.20;1638162;86;21822;-54
2022/05/14 01:44:34;;;;;;;3.40;1.40;;;;;;;20.32;40.88;100027.73;1633099;86;21575;-55
2022/05/14 01:47:02;;;;;;;3.83;1.50;;;;;;;20.52;40.58;100021.02;1631294;86;21249;-63
2022/05/14 01:49:29;;;;;;;6.33;2.17;;;;;;;20.41;40.78;100022.77;1646349;86;22303;-56
2022/05/14 01:51:57;;;;;;;3.70;1.10;;;;;;;20.49;40.67;100020.17;1639863;86;21274;-57
2022/05/14 01:54:25;;;;;;;3.53;1.30;;;;;;;20.54;40.44;100027.67;1652090;86;21796;-55
2022/05/14 01:56:52;;;;;;;3.97;1.00;;;;;;;20.55;40.41;100034.55;1652940;86;21209;-57
2022/05/14 01:59:20;;;;;;;3.60;1.20;;;;;;;20.56;40.33;100032.70;1628561;86;21859;-54
2022/05/14 02:01:47;;;;;;;7.27;1.47;;;;;;;20.49;40.32;100038.20;1632510;87;21768;-62
2022/05/14 02:04:15;;;;;;;4.37;1.53;;;;;;;20.35;40.75;100042.33;1635161;85;21415;-55
2022/05/14 02:06:43;;;;;;;3.63;1.50;;;;;;;20.45;40.95;100045.03;1673077;84;21376;-55
2022/05/14 02:09:13;;;;;;;2.60;1.27;;;;;;;20.45;41.57;100055.62;1680998;84;21219;-56
2022/05/14 02:11:41;;;;;;;2.67;0.90;;;;;;;20.56;42.17;100065.27;1686706;85;21860;-56
2022/05/14 02:14:10;;;;;;;4.20;1.30;;;;;;;20.64;42.45;100083.34;1685848;84;21783;-56
2022/05/14 02:16:37;;;;;;;4.13;1.30;;;;;;;20.64;43.09;100093.14;1685766;85;21650;-55
2022/05/14 02:19:04;;;;;;;3.83;1.30;;;;;;;20.50;44.09;100087.48;1666178;84;21390;-57
2022/05/14 02:21:32;;;;;;;3.27;1.30;;;;;;;20.53;44.67;100083.52;1685043;83;22528;-59
2022/05/14 02:24:00;;;;;;;4.17;1.70;;;;;;;20.40;45.96;100084.72;1685773;84;21257;-62
2022/05/14 02:26:27;;;;;;;5.03;1.33;;;;;;;20.37;47.16;100081.23;1680069;84;21396;-60
2022/05/14 02:28:54;;;;;;;7.07;1.97;;;;;;;20.34;48.55;100075.95;1679015;85;21408;-58
2022/05/14 02:31:22;;;;;;;5.47;1.83;;;;;;;20.38;50.07;100074.39;1688062;84;21334;-57
2022/05/14 02:33:49;;;;;;;3.80;1.43;;;;;;;20.32;52.69;100078.03;1687946;84;21833;-59
2022/05/14 02:36:18;;;;;;;5.33;1.40;;;;;;;20.24;54.99;100070.55;1688471;84;21358;-61
2022/05/14 02:38:45;;;;;;;4.37;1.40;;;;;;;20.23;56.93;100067.64;1677274;83;21334;-66
2022/05/14 02:41:13;;;;;;;3.40;1.47;;;;;;;20.06;60.16;100070.38;1666962;84;21359;-65
2022/05/14 02:43:42;;;;;;;3.77;1.20;;;;;;;20.09;62.14;100066.44;1676891;84;21763;-62
2022/05/14 02:46:12;;;;;;;3.37;1.50;;;;;;;20.03;64.60;100060.28;1687490;84;21293;-61
2022/05/14 02:48:39;;;;;;;6.93;1.70;;;;;;;19.98;66.16;100059.45;1666000;84;21252;-63
2022/05/14 02:51:06;;;;;;;6.20;1.77;;;;;;;19.81;70.27;100064.82;1665663;84;21278;-62
2022/05/14 02:53:35;;;;;;;5.53;1.73;;;;;;;19.72;73.18;100067.12;1667665;84;21343;-59
2022/05/14 02:56:03;;;;;;;8.00;2.43;;;;;;;19.73;75.32;100075.84;1648123;86;21846;-57
2022/05/14 03:01:17;;;;;;;4.87;1.47;;;;;;;19.62;80.83;100090.30;1673819;84;21223;-57
2022/05/14 03:03:44;;;;;;;4.73;1.80;;;;;;;19.63;83.10;100100.34;1655940;84;21712;-58
2022/05/14 03:06:13;;;;;;;6.03;2.20;;;;;;;19.61;84.94;100104.50;1665096;84;21321;-60
2022/05/14 03:08:43;;;;;;;4.37;1.53;;;;;;;19.51;88.37;100105.72;1672358;84;21448;-58
2022/05/14 03:11:10;;;;;;;4.43;1.90;;;;;;;19.52;90.45;100103.34;1672749;83;22146;-56
2022/05/14 03:13:38;;;;;;;4.67;1.70;;;;;;;19.68;89.85;100095.10;1678343;83;21375;-58
2022/05/14 03:16:05;;;;;;;5.50;2.07;;;;;;;19.76;89.95;100102.59;1682621;83;21422;-60
2022/05/14 03:18:33;;;;;;;5.37;1.60;;;;;;;19.50;94.84;100096.70;1658997;85;21736;-63
2022/05/14 03:21:01;;;;;;;6.63;2.53;;;;;;;19.41;96.99;100087.87;1682700;84;21319;-58
2022/05/14 03:23:28;;;;;;;4.50;1.80;;;;;;;19.35;98.96;100074.83;1687477;83;21269;-56
2022/05/14 03:25:56;;;;;;;6.50;2.10;;;;;;;19.51;98.50;100075.32;1665009;84;21241;-60
2022/05/14 03:28:23;;;;;;;6.13;1.87;;;;;;;19.47;100.00;100072.87;1672394;84;21148;-64
2022/05/14 03:30:50;;;;;;;5.87;1.97;;;;;;;19.55;99.86;100073.78;1681968;84;21292;-59
2022/05/14 03:33:17;;;;;;;6.00;2.10;;;;;;;19.51;100.00;100079.29;1657068;84;21209;-56
2022/05/14 03:35:45;;;;;;;4.73;2.00;;;;;;;19.35;100.00;100073.52;1693437;83;21208;-57
2022/05/14 03:38:13;;;;;;;5.93;2.00;;;;;;;19.44;100.00;100072.06;1681769;83;21856;-62
2022/05/14 03:40:40;;;;;;;4.40;1.50;;;;;;;19.45;100.00;100073.65;1674872;84;21843;-58
2022/05/14 03:43:07;;;;;;;5.10;1.83;;;;;;;19.32;100.00;100077.96;1664533;84;21121;-57
2022/05/14 03:45:35;;;;;;;5.77;1.93;;;;;;;19.23;100.00;100076.27;1683100;83;21904;-56
2022/05/14 03:48:03;;;;;;;4.70;2.17;;;;;;;19.30;100.00;100072.14;1682121;83;21194;-62
2022/05/14 03:50:30;;;;;;;5.57;2.40;;;;;;;19.25;100.00;100072.08;1654853;84;21201;-60
2022/05/14 03:52:59;;;;;;;4.57;1.40;;;;;;;19.42;100.00;100072.81;1666084;84;21694;-57
2022/05/14 03:55:27;;;;;;;7.13;2.27;;;;;;;19.41;100.00;100069.91;1693443;84;20975;-57
2022/05/14 03:57:55;;;;;;;6.23;2.00;;;;;;;19.46;100.00;100058.06;1670971;84;21863;-57
2022/05/14 04:00:24;;;;;;;4.07;1.70;;;;;;;19.47;100.00;100054.36;1672643;84;21206;-56
2022/05/14 04:02:51;;;;;;;6.17;2.57;;;;;;;19.58;100.00;100047.35;1674506;84;21247;-57
2022/05/14 04:05:18;;;;;;;6.93;1.73;;;;;;;19.53;100.00;100049.42;1652690;84;21225;-58
2022/05/14 04:07:47;;;;;;;7.37;1.57;;;;;;;19.42;100.00;100044.53;1651396;86;21060;-62
2022/05/14 04:10:18;;;;;;;6.73;2.33;;;;;;;19.35;100.00;100049.72;1627220;88;21252;-66
2022/05/14 04:12:46;;;;;;;4.78;1.80;;;;;;;19.29;100.00;100052.84;1627190;88;23015;-57
2022/05/14 04:15:14;;;;;;;5.00;1.80;;;;;;;19.43;100.00;100054.58;1612516;87;21658;-56
2022/05/14 04:17:42;;;;;;;4.20;1.97;;;;;;;19.45;100.00;100055.94;1648334;86;21167;-57
2022/05/14 04:20:10;;;;;;;6.20;1.83;;;;;;;19.43;100.00;100061.19;1627853;86;21615;-57
2022/05/14 04:22:39;;;;;;;6.07;1.97;;;;;;;19.39;100.00;100057.44;1641864;86;21193;-56
2022/05/14 04:25:07;;;;;;;4.30;1.60;;;;;;;19.26;100.00;100067.06;1652883;86;21330;-57
2022/05/14 04:27:35;;;;;;;5.33;2.00;;;;;;;19.38;100.00;100070.39;1643140;86;21447;-57
2022/05/14 04:30:04;;;;;;;4.37;1.90;;;;;;;19.42;100.00;100080.22;1630104;86;21308;-59
2022/05/14 04:32:31;;;;;;;6.17;1.70;;;;;;;19.48;100.00;100087.70;1617824;87;22095;-56
2022/05/14 04:34:58;;;;;;;6.23;1.93;;;;;;;19.46;100.00;100087.14;1607243;88;21210;-57
2022/05/14 04:37:26;;;;;;;4.77;1.63;;;;;;;19.55;100.00;100085.67;1626269;88;21294;-56
2022/05/14 04:39:53;;;;;;;5.93;2.07;;;;;;;19.53;100.00;100079.83;1584799;88;21294;-61
2022/05/14 04:42:21;;;;;;;5.23;1.70;;;;;;;19.51;100.00;100072.67;1615135;88;21964;-61
2022/05/14 04:44:48;;;;;;;6.53;2.37;;;;;;;19.57;100.00;100070.35;1600662;88;21298;-56
2022/05/14 04:47:16;;;;;;;4.60;1.90;;;;;;;19.60;100.00;100065.90;1600062;86;21415;-57
2022/05/14 04:49:45;;;;;;;7.00;2.33;;;;;;;19.72;100.00;100058.39;1581124;88;21471;-57
2022/05/14 04:52:14;;;;;;;10.10;2.13;;;;;;;19.81;100.00;100051.09;1612773;87;21224;-57
2022/05/14 04:54:41;;;;;;;7.23;2.60;;;;;;;19.76;100.00;100046.27;1618337;88;21748;-58
2022/05/14 04:57:09;;;;;;;5.47;2.20;;;;;;;19.65;100.00;100048.79;1598734;89;21269;-57
2022/05/14 04:59:37;;;;;;;6.37;2.73;;;;;;;19.83;100.00;100048.19;1601968;88;22141;-58
2022/05/14 05:04:54;;;;;;;6.00;1.83;;;;;;;20.16;100.00;100036.61;1625592;88;21304;-56
2022/05/14 05:07:22;;;;;;;4.77;1.87;;;;;;;20.27;100.00;100029.56;1637876;86;21260;-62
2022/05/14 05:09:53;;;;;;;4.90;1.80;;;;;;;20.30;100.00;100029.03;1655612;86;21282;-58
2022/05/14 05:12:21;;;;;;;6.97;2.97;;;;;;;20.40;100.00;100014.56;1644892;84;21375;-57
2022/05/14 05:14:49;;;;;;;7.30;2.27;;;;;;;20.51;100.00;100014.14;1623787;87;21932;-56
2022/05/14 05:17:16;;;;;;;5.07;1.90;;;;;;;20.57;100.00;100008.62;1636125;86;21397;-57
2022/05/14 05:19:43;;;;;;;8.37;2.77;;;;;;;20.54;100.00;99996.42;1631674;86;21429;-57
2022/05/14 05:22:10;;;;;;;6.27;2.63;;;;;;;20.67;100.00;99977.95;1637097;86;21610;-57
2022/05/14 05:24:39;;;;;;;4.13;2.07;;;;;;;20.67;100.00;99977.95;1653774;86;21974;-55
2022/05/14 05:27:07;;;;;;;7.33;1.97;;;;;;;20.82;100.00;99970.09;1655647;86;21937;-54
2022/05/14 05:29:34;;;;;;;5.23;1.50;;;;;;;20.65;100.00;99952.53;1647592;86;21389;-55
2022/05/14 05:32:02;;;;;;;4.37;1.63;;;;;;;20.65;100.00;99952.53;1634282;86;22525;-55
2022/05/14 05:34:29;;;;;;;4.93;2.00;;;;;;;20.74;100.00;99937.47;1651131;86;21751;-55
2022/05/14 05:36:56;;;;;;;6.20;2.30;;;;;;;20.74;100.00;99937.47;1636383;86;21517;-55
2022/05/14 05:39:24;;;;;;;5.93;2.03;;;;;;;20.83;100.00;99933.27;1661246;84;21486;-64
2022/05/14 05:41:52;;;;;;;3.67;2.10;;;;;;;20.92;100.00;99933.05;1668535;84;21572;-60
2022/05/14 05:44:20;;;;;;;4.30;1.40;;;;;;;20.95;100.00;99927.24;1640736;85;21552;-54
2022/05/14 05:46:47;;;;;;;5.23;1.90;;;;;;;21.03;100.00;99925.95;1663875;84;21220;-55
2022/05/14 05:49:14;;;;;;;3.87;1.70;;;;;;;21.19;100.00;99924.92;1606821;87;21842;-58
2022/05/14 05:51:42;;;;;;;4.07;1.80;;;;;;;21.29;100.00;99926.28;1654867;84;21805;-62
2022/05/14 05:56:59;;;;;;;4.27;1.67;;;;;;;21.60;100.00;99917.87;1636339;85;21466;-56
2022/05/14 05:59:28;;;;;;;5.10;1.55;;;;;;;21.78;100.00;99907.28;1677278;84;21633;-62
2022/05/14 06:01:55;;;;;;;4.10;1.73;;;;;;;22.03;100.00;99899.81;1660741;84;21487;-54
2022/05/14 06:04:22;;;;;;;6.17;2.10;;;;;;;22.15;100.00;99901.42;1680760;84;21826;-56
2022/05/14 06:06:49;;;;;;;4.40;1.50;;;;;;;22.18;100.00;99912.30;1650694;84;21665;-56
2022/05/14 06:09:21;;;;;;;2.87;1.33;;;;;;;22.24;100.00;99911.25;1676230;84;21831;-57
2022/05/14 06:11:48;;;;;;;4.03;1.27;;;;;;;22.31;100.00;99914.42;1686106;84;21771;-55
2022/05/14 06:14:15;;;;;;;4.27;1.10;;;;;;;22.54;100.00;99911.70;1685413;84;21494;-57
2022/05/14 06:16:43;;;;;;;2.23;0.80;;;;;;;22.62;98.68;99918.86;1676761;84;21134;-56
2022/05/14 06:19:10;;;;;;;4.00;1.43;;;;;;;22.78;92.72;99927.03;1676384;84;21094;-55
2022/05/14 06:21:38;;;;;;;3.70;1.03;;;;;;;23.00;87.76;99932.81;1686332;84;21305;-55
2022/05/14 06:24:07;;;;;;;2.97;1.00;;;;;;;23.10;87.02;99936.48;1679966;84;21444;-55
2022/05/14 06:26:34;;;;;;;2.83;1.10;;;;;;;23.36;90.25;99947.23;1660714;84;21065;-57
2022/05/14 06:29:01;;;;;;;5.73;1.23;;;;;;;23.54;86.21;99934.63;1648821;85;21105;-59
2022/05/14 06:31:28;;;;;;;6.93;1.10;;;;;;;23.79;81.99;99932.89;1638777;84;21076;-57
2022/05/14 06:33:56;;;;;;;3.87;1.13;;;;;;;24.01;76.29;99928.42;1603117;87;21420;-56
2022/05/14 06:36:23;;;;;;;4.93;1.80;;;;;;;24.19;76.24;99926.94;1612255;86;21020;-56
2022/05/14 06:38:50;;;;;;;3.20;1.10;;;;;;;24.24;70.46;99914.38;1677098;84;21091;-57
2022/05/14 06:41:17;;;;;;;3.57;1.20;;;;;;;24.27;69.57;99914.33;1674653;84;20976;-56
2022/05/14 06:43:44;;;;;;;4.07;1.30;;;;;;;24.33;67.67;99916.42;1633231;85;21403;-56
2022/05/14 06:46:11;;;;;;;3.87;1.23;;;;;;;24.37;69.56;99919.56;1653996;86;21539;-56
2022/05/14 06:48:40;;;;;;;2.10;1.10;;;;;;;24.65;69.01;99915.81;1607256;87;21575;-58
2022/05/14 06:51:11;;;;;;;3.23;0.90;;;;;;;25.22;73.29;99921.50;1651427;86;21517;-58
2022/05/14 06:53:39;;;;;;;3.02;1.27;;;;;;;26.00;66.65;99911.80;1640454;86;21091;-61
2022/05/14 06:56:06;;;;;;;2.80;1.00;;;;;;;26.83;63.39;99904.06;1645819;86;21360;-57
2022/05/14 06:58:36;;;;;;;3.33;0.97;;;;;;;27.48;57.46;99897.56;1655613;86;22016;-57
2022/05/14 07:01:04;;;;;;;4.60;1.37;;;;;;;28.16;51.49;99898.84;1656571;86;21043;-64
2022/05/14 07:09:06;;;;;;;3.10;0.90;;;;;;;28.95;44.00;99903.34;1657432;86;20954;-62
2022/05/14 07:11:35;;;;;;;2.90;1.20;;;;;;;29.07;43.75;99898.17;1654872;86;21954;-57
2022/05/14 07:14:03;;;;;;;2.53;0.90;;;;;;;29.14;43.94;99903.86;1655278;85;21070;-55
2022/05/14 07:16:30;;;;;;;2.50;1.10;;;;;;;29.09;41.66;99909.36;1655019;86;21125;-56
2022/05/14 07:18:57;;;;;;;2.70;1.00;;;;;;;28.95;40.30;99906.81;1654436;85;21074;-64
2022/05/14 07:21:24;;;;;;;2.30;0.97;;;;;;;28.68;39.85;99910.56;1655026;86;21169;-58
2022/05/14 07:23:53;;;;;;;2.67;1.23;;;;;;;28.39;40.45;99914.33;1655976;86;21169;-57
2022/05/14 07:26:20;;;;;;;3.67;0.90;;;;;;;28.14;41.12;99913.87;1654610;85;21147;-55
2022/05/14 07:28:47;;;;;;;3.10;1.03;;;;;;;28.13;41.75;99905.59;1628291;86;21572;-64
2022/05/14 07:31:16;;;;;;;3.00;1.07;;;;;;;28.18;42.50;99909.47;1656754;85;21063;-58
2022/05/14 07:33:43;;;;;;;2.80;1.20;;;;;;;28.60;43.12;99897.37;1655435;86;21564;-59
2022/05/14 07:36:16;;;;;;;2.53;1.00;;;;;;;28.81;41.97;99893.53;1655574;86;21260;-56
2022/05/14 07:38:45;;;;;;;2.93;1.00;;;;;;;29.05;41.28;99893.66;1655172;85;21142;-56
2022/05/14 07:41:12;;;;;;;2.17;1.20;;;;;;;29.36;40.83;99896.72;1649074;86;21314;-58
2022/05/14 07:43:42;;;;;;;3.87;1.30;;;;;;;29.54;40.93;99905.00;1657980;85;21066;-56
2022/05/14 07:46:13;;;;;;;3.00;1.50;;;;;;;29.82;39.06;99894.72;1629340;86;21098;-56
2022/05/14 07:48:41;;;;;;;3.58;1.20;;;;;;;29.76;38.14;99897.33;1660489;85;21190;-63
2022/05/14 07:51:09;;;;;;;4.03;1.30;;;;;;;29.84;38.93;99897.86;1659972;85;21008;-57
2022/05/14 07:53:37;;;;;;;3.10;1.30;;;;;;;29.79;38.27;99900.17;1659897;85;21403;-56
2022/05/14 07:56:05;;;;;;;4.47;1.30;;;;;;;29.93;37.76;99893.80;1647909;86;21505;-55
2022/05/14 07:58:33;;;;;;;2.80;1.10;;;;;;;30.09;37.24;99888.70;1641029;86;21058;-57
2022/05/14 08:01:00;;;;;;;3.10;1.30;;;;;;;30.00;36.58;99890.06;1654311;86;21743;-57
2022/05/14 08:03:28;;;;;;;3.53;1.30;;;;;;;29.95;36.64;99884.88;1655643;86;21488;-57
2022/05/14 08:05:55;;;;;;;3.03;1.30;;;;;;;29.94;37.25;99886.77;1655061;85;20940;-56
2022/05/14 08:08:23;;;;;;;3.33;1.40;;;;;;;30.06;36.83;99890.12;1679908;84;21115;-57
2022/05/14 08:10:52;;;;;;;2.57;1.27;;;;;;;29.82;35.94;99894.72;1663878;84;21031;-55
2022/05/14 08:13:20;;;;;;;2.67;1.50;;;;;;;29.40;37.11;99905.19;1627045;84;21206;-55
2022/05/14 08:15:48;;;;;;;5.13;1.30;;;;;;;29.21;37.88;99906.86;1671217;84;21611;-59
2022/05/14 08:18:16;;;;;;;3.50;1.00;;;;;;;29.23;37.45;99899.82;1671171;84;21501;-56
2022/05/14 08:20:44;;;;;;;2.07;1.10;;;;;;;29.11;38.04;99899.11;1626620;88;21123;-58
2022/05/14 08:25:59;;;;;;;2.53;1.00;;;;;;;29.22;37.76;99888.85;1627703;87;21160;-56
2022/05/14 08:28:27;;;;;;;2.33;0.90;;;;;;;28.98;36.86;99887.96;1637196;86;21079;-55
2022/05/14 08:30:54;;;;;;;3.53;1.23;;;;;;;28.56;37.27;99888.38;1646027;85;21087;-57
2022/05/14 08:33:21;;;;;;;2.87;1.30;;;;;;;28.42;37.74;99896.30;1657288;86;21944;-59
2022/05/14 08:35:48;;;;;;;2.67;1.00;;;;;;;28.30;38.22;99896.30;1601067;87;21016;-56
2022/05/14 08:38:16;;;;;;;5.10;1.93;;;;;;;28.26;38.64;99894.00;1646287;86;22384;-64
2022/05/14 08:40:57;;;;;;;2.43;1.10;;;;;;;28.17;38.46;99894.50;1646668;86;21093;-65
2022/05/14 08:43:43;;;;;;;2.30;1.00;;;;;;;28.00;39.29;99893.89;1673751;83;21077;-57
2022/05/14 08:46:19;;;;;;;3.20;1.00;;;;;;;28.12;39.09;99891.97;1686901;83;20986;-66
2022/05/14 08:48:53;;;;;;;2.17;0.90;;;;;;;28.25;39.39;99891.61;1682098;83;21050;-56
2022/05/14 08:51:25;;;;;;;1.17;0.60;;;;;;;28.51;39.71;99894.41;1697626;83;21920;-57
2022/05/14 08:53:52;;;;;;;2.80;0.90;;;;;;;28.90;38.66;99891.41;1671899;83;21090;-66
2022/05/14 08:56:28;;;;;;;2.00;0.87;;;;;;;29.10;38.09;99893.52;1675467;83;21579;-57
2022/05/14 08:59:25;;;;;;;2.63;1.03;;;;;;;29.22;37.66;99896.91;1696161;83;21074;-56
2022/05/14 09:01:54;;;;;;;1.93;1.00;;;;;;;29.25;37.30;99889.02;1682216;83;21130;-57
2022/05/14 09:04:22;;;;;;;2.57;1.00;;;;;;;29.26;37.00;99889.80;1690008;84;21141;-58
2022/05/14 09:06:51;;;;;;;2.60;1.00;;;;;;;29.32;37.23;99889.33;1696333;84;22255;-54
2022/05/14 09:09:19;;;;;;;2.13;0.80;;;;;;;29.37;36.82;99877.63;1680870;84;21032;-63
2022/05/14 09:11:58;;;;;;;2.30;1.00;;;;;;;29.43;36.77;99872.87;1660235;84;22144;-56
2022/05/14 09:14:33;;;;;;;3.17;1.10;;;;;;;29.52;36.33;99870.98;1643736;86;21082;-58
2022/05/14 09:17:14;;;;;;;2.67;1.10;;;;;;;29.69;36.90;99874.20;1664945;86;21135;-63
2022/05/14 09:19:44;;;;;;;2.40;0.63;;;;;;;30.06;37.21;99890.12;1627154;88;21083;-56
2022/05/14 09:22:31;;;;;;;2.60;0.70;;;;;;;30.24;35.94;99891.66;1661305;85;21209;-56
2022/05/14 09:25:20;;;;;;;3.10;0.90;;;;;;;29.97;35.76;99890.16;1636601;84;21138;-57
2022/05/14 09:28:06;;;;;;;1.80;0.80;;;;;;;29.83;36.47;99888.78;1613269;88;21071;-58
2022/05/14 09:30:37;;;;;;;3.30;0.90;;;;;;;29.69;36.70;99886.28;1596190;88;21474;-56
2022/05/14 09:33:05;;;;;;;2.50;1.07;;;;;;;29.51;36.71;99875.56;1625418;87;21079;-53
2022/05/14 09:35:33;;;;;;;2.20;0.80;;;;;;;29.22;37.07;99880.25;1634882;86;21564;-56
2022/05/14 09:38:10;;;;;;;2.13;0.80;;;;;;;29.02;37.27;99872.84;1625502;87;20980;-60
2022/05/14 09:40:37;;;;;;;3.23;1.00;;;;;;;28.84;37.64;99879.49;1638215;85;21939;-56
2022/05/14 09:43:16;;;;;;;3.47;0.90;;;;;;;28.80;37.79;99879.88;1601226;89;21369;-56
2022/05/14 09:46:04;;;;;;;2.67;0.90;;;;;;;28.72;38.31;99877.98;1634978;86;21118;-58
2022/05/14 09:48:47;;;;;;;2.67;0.90;;;;;;;28.52;39.00;99883.92;1612397;87;21157;-57
2022/05/14 09:51:38;;;;;;;3.07;0.80;;;;;;;28.46;39.12;99877.14;1686195;84;21133;-64
2022/05/14 09:54:27;;;;;;;4.95;0.80;;;;;;;28.60;38.67;99876.44;1661668;84;21078;-57
2022/05/14 09:57:36;;;;;;;2.37;0.73;;;;;;;28.67;39.12;99875.44;1627254;88;21259;-55
2022/05/14 10:00:32;;;;;;;2.00;0.80;;;;;;;28.82;38.58;99864.80;1627430;86;20957;-63
2022/05/14 10:03:20;;;;;;;;;;;;;;;28.88;37.58;99866.23;1648889;86;20986;-56
2022/05/14 10:06:15;;;;;;;1.83;0.70;;;;;;;28.82;38.39;99866.14;1692427;84;20414;-58
2022/05/14 10:09:04;;;;;;;1.80;0.50;;;;;;;28.79;37.45;99863.56;1685238;84;21117;-58
2022/05/14 10:11:44;;;;;;;1.80;0.57;;;;;;;28.83;37.93;99864.51;1681877;85;21259;-55
2022/05/14 10:14:32;;;;;;;1.97;0.63;;;;;;;29.07;38.03;99859.25;1679453;85;20948;-57
2022/05/14 10:17:13;;;;;;;2.63;0.60;;;;;;;29.19;38.11;99858.05;1661407;85;21023;-59
2022/05/14 10:20:21;;;;;;;2.33;0.50;;;;;;;29.23;37.74;99852.28;1672886;84;20929;-56
2022/05/14 10:29:47;;;;;;;4.90;0.80;;;;;;;28.89;37.53;99856.30;1681642;85;21082;-55
2022/05/14 10:32:18;;;;;;;;;;;;;;;28.65;38.17;99856.20;1677662;84;21075;-55
2022/05/14 10:34:56;;;;;;;1.80;0.50;;;;;;;28.59;38.86;99854.75;1687111;85;20761;-55
2022/05/14 10:37:44;;;;;;;2.47;0.60;;;;;;;28.54;38.89;99854.36;1686333;85;21078;-57
2022/05/14 10:40:32;;;;;;;1.37;0.40;;;;;;;28.42;39.17;99844.80;1644232;84;21548;-54
2022/05/14 10:43:55;;;;;;;1.30;0.50;;;;;;;28.29;39.23;99847.80;1673226;84;21549;-56
2022/05/14 10:46:24;;;;;;;2.93;0.57;;;;;;;28.18;39.24;99844.37;1656733;84;21000;-57
2022/05/14 10:49:13;;;;;;;1.47;0.60;;;;;;;28.05;39.98;99839.37;1672453;85;21074;-55
2022/05/14 10:51:52;;;;;;;2.10;0.60;;;;;;;28.16;39.86;99832.63;1660903;85;21007;-63
2022/05/14 10:54:22;;;;;;;1.10;0.70;;;;;;;28.11;39.97;99828.77;1668954;84;21772;-56
2022/05/14 10:57:06;;;;;;;1.40;0.60;;;;;;;28.11;40.36;99831.44;1687130;85;21600;-57
2022/05/14 10:59:42;;;;;;;1.47;0.53;;;;;;;28.28;40.48;99826.12;1682914;83;21039;-56
2022/05/14 11:02:17;;;;;;;0.80;0.47;;;;;;;28.57;40.16;99822.11;1653552;86;21024;-56
2022/05/14 11:04:48;;;;;;;1.80;0.60;;;;;;;28.59;39.96;99815.88;1652621;85;21507;-57
2022/05/14 11:07:37;;;;;;;2.73;0.60;;;;;;;28.54;39.21;99810.11;1652548;86;21391;-64
2022/05/14 11:10:35;;;;;;;1.30;0.60;;;;;;;28.51;39.33;99803.25;1658781;85;21007;-55
2022/05/14 11:13:24;;;;;;;2.20;0.70;;;;;;;28.19;40.27;99795.05;1658592;84;21143;-59
2022/05/14 11:16:10;;;;;;;1.83;0.67;;;;;;;28.36;40.10;99789.16;1668917;84;21441;-55
2022/05/14 11:18:51;;;;;;;1.30;0.60;;;;;;;28.51;39.25;99783.14;1677801;84;21091;-55
2022/05/14 11:21:18;;;;;;;1.00;0.40;;;;;;;28.68;39.25;99775.64;1664195;84;21137;-62
2022/05/14 11:24:01;;;;;;;1.03;0.50;;;;;;;28.60;39.36;99763.81;1664678;85;21044;-62
2022/05/14 11:26:29;;;;;;;1.70;0.60;;;;;;;28.78;39.36;99756.00;1685731;85;21038;-57
2022/05/14 11:29:15;;;;;;;1.63;0.50;;;;;;;28.58;39.36;99751.28;1678800;84;21489;-55
2022/05/14 11:31:50;;;;;;;1.00;0.60;;;;;;;28.66;38.89;99754.52;1660661;84;21686;-57
2022/05/14 11:34:23;;;;;;;1.27;0.60;;;;;;;28.67;38.79;99757.42;1643876;84;22423;-55
2022/05/14 11:36:57;;;;;;;2.53;0.57;;;;;;;28.72;38.31;99747.90;1678085;84;21134;-54
2022/05/14 11:39:34;;;;;;;1.43;0.73;;;;;;;28.93;38.48;99757.41;1680632;85;21022;-54
2022/05/14 11:42:11;;;;;;;1.63;0.60;;;;;;;28.89;38.60;99754.34;1659097;84;21077;-56
2022/05/14 11:44:50;;;;;;;2.47;0.40;;;;;;;28.95;38.81;99753.09;1665142;84;21084;-61
2022/05/14 11:47:48;;;;;;;2.50;0.40;;;;;;;28.94;38.35;99771.05;1670441;84;21505;-55
2022/05/14 11:50:16;;;;;;;1.90;0.70;;;;;;;28.69;38.38;99776.69;1635428;84;21094;-61
2022/05/14 11:53:00;;;;;;;1.00;0.40;;;;;;;28.39;38.72;99775.72;1674762;84;21213;-55
2022/05/14 11:55:31;;;;;;;1.50;0.60;;;;;;;28.16;39.20;99779.03;1639012;86;20993;-55
2022/05/14 11:58:12;;;;;;;4.55;0.65;;;;;;;27.98;39.63;99776.84;1691661;84;20979;-57
2022/05/14 12:00:41;;;;;;;;;;;;;;;27.66;40.34;99775.30;1688426;84;22430;-54
2022/05/14 12:03:16;;;;;;;1.30;0.50;;;;;;;27.50;40.66;99770.08;1686823;85;20168;-55
2022/05/14 12:05:51;;;;;;;1.27;0.60;;;;;;;27.44;40.80;99776.12;1667977;85;21518;-62
2022/05/14 12:08:51;;;;;;;1.20;0.57;;;;;;;27.08;41.39;99776.19;1648528;86;21102;-56
2022/05/14 12:11:45;;;;;;;1.90;0.60;;;;;;;26.99;41.73;99776.12;1625574;86;21585;-57
2022/05/14 12:14:19;;;;;;;2.20;0.70;;;;;;;26.90;42.59;99777.96;1661875;84;21515;-55
2022/05/14 12:16:51;;;;;;;1.43;0.83;;;;;;;26.42;43.11;99777.91;1670774;84;21526;-64
2022/05/14 12:19:25;;;;;;;1.60;0.70;;;;;;;26.36;43.47;99771.63;1658777;84;21542;-56